This is the latest recevied weather packets stored in our database for station/object KM4CBK. If no packets are shown the sender has not sent any weather packets the latest 10 day(s).
| Time | Temp. | Humidity | Pressure | Rain* | Wind** | Luminosity | Snow |
|---|---|---|---|---|---|---|---|
| 1777903669 | 18.33° C | 74% | 1017.6 hPa | 0 mm | - | 399 W/m² | - |
| 1777903365 | 17.22° C | 74% | 1017.5 hPa | 0 mm | - | 149 W/m² | - |
| 1777903061 | 17.22° C | 77% | 1017.7 hPa | 0 mm | - | 75 W/m² | - |
| 1777902758 | 16.11° C | 79% | 1017.6 hPa | 0 mm | - | 299 W/m² | - |
| 1777902455 | 15.56° C | 82% | 1017.6 hPa | 0 mm | - | 51 W/m² | - |
| 1777902152 | 14.44° C | 83% | 1017.6 hPa | 0 mm | - | 40 W/m² | - |
| 1777901851 | 15° C | 82% | 1017.8 hPa | 0 mm | - | 37 W/m² | - |
| 1777901547 | 14.44° C | 84% | 1017.7 hPa | 0 mm | - | 39 W/m² | - |
| 1777901245 | 13.89° C | 85% | 1017.6 hPa | 0 mm | - | 37 W/m² | - |
| 1777900942 | 13.89° C | 87% | 1017.7 hPa | 0 mm | - | 38 W/m² | - |
| 1777900639 | 13.33° C | 88% | 1017.7 hPa | 0 mm | - | 38 W/m² | - |
| 1777900336 | 13.33° C | 89% | 1017.8 hPa | 0 mm | - | 38 W/m² | - |
| 1777900033 | 12.78° C | 90% | 1017.6 hPa | 0 mm | - | 38 W/m² | - |
| 1777899729 | 12.78° C | 91% | 1017.6 hPa | 0 mm | - | 34 W/m² | - |
| 1777899427 | 12.22° C | 93% | 1017.6 hPa | 0 mm | - | 39 W/m² | - |
| 1777899125 | 11.67° C | 96% | 1017.5 hPa | 0 mm | - | 42 W/m² | - |
| 1777898822 | 11.11° C | 99% | 1017.5 hPa | 0 mm | - | 42 W/m² | - |
| 1777898519 | 10.56° C | 99% | 1017.4 hPa | 0 mm | - | 31 W/m² | - |
| 1777898216 | 10.56° C | 99% | 1017.3 hPa | 0 mm | - | 37 W/m² | - |
| 1777897914 | 10.56° C | 99% | 1017.5 hPa | 0 mm | - | 29 W/m² | - |
| 1777897609 | 10° C | 99% | 1017.4 hPa | 0 mm | - | 31 W/m² | - |
| 1777897305 | 9.44° C | 99% | 1017.3 hPa | 0 mm | - | 31 W/m² | - |
| 1777897001 | 9.44° C | 99% | 1017.2 hPa | 0 mm | - | 23 W/m² | - |
| 1777896699 | 9.44° C | 99% | 1017.2 hPa | 0 mm | - | 16 W/m² | - |
| 1777896395 | 9.44° C | 99% | 1017.4 hPa | 0 mm | - | 22 W/m² | - |
* Rain latest hour (hover to see other rain measurements)
** Current wind speed in m/s (hover to see current wind gust speed)